sensor_id;sensor_type;location;lat;lon;timestamp;P1;durP1;ratioP1;P2;durP2;ratioP2
70635;SDS011;58206;47.310;19.502;2023-09-08T00:01:04;1.23;;;0.43;;
70635;SDS011;58206;47.310;19.502;2023-09-08T00:03:48;0.70;;;0.30;;
70635;SDS011;58206;47.310;19.502;2023-09-08T00:06:33;0.80;;;0.30;;
70635;SDS011;58206;47.310;19.502;2023-09-08T00:09:17;2.90;;;1.17;;
70635;SDS011;58206;47.310;19.502;2023-09-08T00:12:01;2.05;;;0.90;;
70635;SDS011;58206;47.310;19.502;2023-09-08T00:14:46;1.20;;;0.30;;
70635;SDS011;58206;47.310;19.502;2023-09-08T00:17:30;0.93;;;0.33;;
70635;SDS011;58206;47.310;19.502;2023-09-08T00:20:14;0.45;;;0.10;;
70635;SDS011;58206;47.310;19.502;2023-09-08T00:22:59;2.40;;;1.42;;
70635;SDS011;58206;47.310;19.502;2023-09-08T00:25:43;0.47;;;0.10;;
70635;SDS011;58206;47.310;19.502;2023-09-08T00:28:28;1.10;;;0.40;;
70635;SDS011;58206;47.310;19.502;2023-09-08T00:31:12;1.27;;;0.60;;
70635;SDS011;58206;47.310;19.502;2023-09-08T00:33:57;1.10;;;0.50;;
70635;SDS011;58206;47.310;19.502;2023-09-08T00:36:41;1.27;;;0.50;;
70635;SDS011;58206;47.310;19.502;2023-09-08T00:39:25;0.65;;;0.25;;
70635;SDS011;58206;47.310;19.502;2023-09-08T00:42:10;2.05;;;0.75;;
70635;SDS011;58206;47.310;19.502;2023-09-08T00:44:54;0.43;;;0.10;;
70635;SDS011;58206;47.310;19.502;2023-09-08T00:47:38;1.35;;;0.43;;
70635;SDS011;58206;47.310;19.502;2023-09-08T00:50:23;0.73;;;0.30;;
70635;SDS011;58206;47.310;19.502;2023-09-08T00:53:07;0.55;;;0.10;;
70635;SDS011;58206;47.310;19.502;2023-09-08T00:55:52;1.17;;;0.45;;
70635;SDS011;58206;47.310;19.502;2023-09-08T00:58:37;1.23;;;0.63;;
70635;SDS011;58206;47.310;19.502;2023-09-08T01:01:22;0.85;;;0.30;;
70635;SDS011;58206;47.310;19.502;2023-09-08T01:04:06;4.00;;;0.85;;
70635;SDS011;58206;47.310;19.502;2023-09-08T01:06:51;3.50;;;0.32;;
70635;SDS011;58206;47.310;19.502;2023-09-08T01:09:37;1.48;;;0.60;;
70635;SDS011;58206;47.310;19.502;2023-09-08T01:12:22;1.20;;;0.30;;
70635;SDS011;58206;47.310;19.502;2023-09-08T01:15:06;0.68;;;0.20;;
70635;SDS011;58206;47.310;19.502;2023-09-08T01:17:52;1.23;;;0.63;;
70635;SDS011;58206;47.310;19.502;2023-09-08T01:26:26;0.70;;;0.23;;
70635;SDS011;58206;47.310;19.502;2023-09-08T01:29:11;0.60;;;0.20;;
70635;SDS011;58206;47.310;19.502;2023-09-08T01:31:56;0.57;;;0.32;;
70635;SDS011;58206;47.310;19.502;2023-09-08T01:34:41;0.90;;;0.30;;
70635;SDS011;58206;47.310;19.502;2023-09-08T01:37:26;1.42;;;0.70;;
70635;SDS011;58206;47.310;19.502;2023-09-08T01:40:10;1.10;;;0.30;;
70635;SDS011;58206;47.310;19.502;2023-09-08T01:42:55;0.68;;;0.22;;
70635;SDS011;58206;47.310;19.502;2023-09-08T01:45:40;1.48;;;0.63;;
70635;SDS011;58206;47.310;19.502;2023-09-08T01:48:25;1.38;;;0.70;;
70635;SDS011;58206;47.310;19.502;2023-09-08T01:51:09;1.58;;;1.15;;
70635;SDS011;58206;47.310;19.502;2023-09-08T01:53:54;0.80;;;0.20;;
70635;SDS011;58206;47.310;19.502;2023-09-08T01:56:38;0.73;;;0.50;;
70635;SDS011;58206;47.310;19.502;2023-09-08T01:59:22;2.08;;;0.75;;
70635;SDS011;58206;47.310;19.502;2023-09-08T02:02:07;0.50;;;0.10;;
70635;SDS011;58206;47.310;19.502;2023-09-08T02:04:51;1.05;;;0.45;;
70635;SDS011;58206;47.310;19.502;2023-09-08T02:07:35;1.13;;;0.53;;
70635;SDS011;58206;47.310;19.502;2023-09-08T02:10:20;1.67;;;0.95;;
70635;SDS011;58206;47.310;19.502;2023-09-08T02:13:04;3.25;;;0.70;;
70635;SDS011;58206;47.310;19.502;2023-09-08T02:15:49;1.67;;;0.75;;
70635;SDS011;58206;47.310;19.502;2023-09-08T02:18:33;1.17;;;0.45;;
70635;SDS011;58206;47.310;19.502;2023-09-08T02:21:19;1.87;;;0.60;;
70635;SDS011;58206;47.310;19.502;2023-09-08T02:24:03;0.88;;;0.45;;
70635;SDS011;58206;47.310;19.502;2023-09-08T02:26:49;0.85;;;0.32;;
70635;SDS011;58206;47.310;19.502;2023-09-08T02:29:35;2.92;;;1.15;;
70635;SDS011;58206;47.310;19.502;2023-09-08T02:32:19;1.25;;;0.60;;
70635;SDS011;58206;47.310;19.502;2023-09-08T02:35:04;1.17;;;0.33;;
70635;SDS011;58206;47.310;19.502;2023-09-08T02:37:48;1.98;;;1.05;;
70635;SDS011;58206;47.310;19.502;2023-09-08T02:40:33;4.78;;;1.20;;
70635;SDS011;58206;47.310;19.502;2023-09-08T02:43:18;1.30;;;0.50;;
70635;SDS011;58206;47.310;19.502;2023-09-08T02:46:03;0.88;;;0.32;;
70635;SDS011;58206;47.310;19.502;2023-09-08T02:48:48;1.17;;;0.43;;
70635;SDS011;58206;47.310;19.502;2023-09-08T02:51:32;1.25;;;0.90;;
70635;SDS011;58206;47.310;19.502;2023-09-08T02:54:17;0.77;;;0.35;;
70635;SDS011;58206;47.310;19.502;2023-09-08T02:57:01;1.20;;;0.20;;
70635;SDS011;58206;47.310;19.502;2023-09-08T02:59:49;1.02;;;0.45;;
70635;SDS011;58206;47.310;19.502;2023-09-08T03:02:35;2.03;;;0.50;;
70635;SDS011;58206;47.310;19.502;2023-09-08T03:05:19;2.28;;;1.15;;
70635;SDS011;58206;47.310;19.502;2023-09-08T03:08:03;1.63;;;0.70;;
70635;SDS011;58206;47.310;19.502;2023-09-08T03:10:49;4.05;;;1.67;;
70635;SDS011;58206;47.310;19.502;2023-09-08T03:13:33;0.73;;;0.20;;
70635;SDS011;58206;47.310;19.502;2023-09-08T03:16:18;0.70;;;0.27;;
70635;SDS011;58206;47.310;19.502;2023-09-08T03:19:02;1.10;;;0.40;;
70635;SDS011;58206;47.310;19.502;2023-09-08T03:21:47;1.40;;;0.43;;
70635;SDS011;58206;47.310;19.502;2023-09-08T03:24:31;0.82;;;0.30;;
70635;SDS011;58206;47.310;19.502;2023-09-08T03:27:15;1.55;;;0.68;;
70635;SDS011;58206;47.310;19.502;2023-09-08T03:30:00;1.27;;;0.37;;
70635;SDS011;58206;47.310;19.502;2023-09-08T03:32:45;1.33;;;0.63;;
70635;SDS011;58206;47.310;19.502;2023-09-08T03:35:30;1.48;;;0.75;;
70635;SDS011;58206;47.310;19.502;2023-09-08T03:38:14;0.70;;;0.13;;
70635;SDS011;58206;47.310;19.502;2023-09-08T03:40:59;1.10;;;0.57;;
70635;SDS011;58206;47.310;19.502;2023-09-08T03:43:43;1.10;;;0.87;;
70635;SDS011;58206;47.310;19.502;2023-09-08T03:46:28;1.10;;;0.50;;
70635;SDS011;58206;47.310;19.502;2023-09-08T03:49:13;1.00;;;0.45;;
70635;SDS011;58206;47.310;19.502;2023-09-08T03:51:58;0.90;;;0.32;;
70635;SDS011;58206;47.310;19.502;2023-09-08T03:54:46;1.60;;;0.85;;
70635;SDS011;58206;47.310;19.502;2023-09-08T03:57:31;1.80;;;0.63;;
70635;SDS011;58206;47.310;19.502;2023-09-08T04:00:15;1.80;;;1.02;;
70635;SDS011;58206;47.310;19.502;2023-09-08T04:03:05;0.88;;;0.60;;
70635;SDS011;58206;47.310;19.502;2023-09-08T04:05:50;0.90;;;0.40;;
70635;SDS011;58206;47.310;19.502;2023-09-08T04:08:34;1.75;;;0.65;;
70635;SDS011;58206;47.310;19.502;2023-09-08T04:11:19;1.47;;;0.87;;
70635;SDS011;58206;47.310;19.502;2023-09-08T04:14:03;0.85;;;0.43;;
70635;SDS011;58206;47.310;19.502;2023-09-08T04:16:47;1.60;;;0.73;;
70635;SDS011;58206;47.310;19.502;2023-09-08T04:19:32;1.13;;;0.57;;
70635;SDS011;58206;47.310;19.502;2023-09-08T04:22:16;0.68;;;0.30;;
70635;SDS011;58206;47.310;19.502;2023-09-08T04:25:01;0.80;;;0.40;;
70635;SDS011;58206;47.310;19.502;2023-09-08T04:27:46;2.03;;;1.05;;
70635;SDS011;58206;47.310;19.502;2023-09-08T04:30:30;1.30;;;0.85;;
70635;SDS011;58206;47.310;19.502;2023-09-08T04:33:15;3.20;;;0.95;;
70635;SDS011;58206;47.310;19.502;2023-09-08T04:35:59;0.82;;;0.45;;
70635;SDS011;58206;47.310;19.502;2023-09-08T04:38:43;1.57;;;0.77;;
70635;SDS011;58206;47.310;19.502;2023-09-08T04:41:31;1.95;;;1.30;;
70635;SDS011;58206;47.310;19.502;2023-09-08T04:44:26;1.05;;;0.57;;
70635;SDS011;58206;47.310;19.502;2023-09-08T04:47:10;0.63;;;0.20;;
70635;SDS011;58206;47.310;19.502;2023-09-08T04:49:55;3.80;;;1.90;;
70635;SDS011;58206;47.310;19.502;2023-09-08T04:52:39;3.50;;;1.27;;
70635;SDS011;58206;47.310;19.502;2023-09-08T04:55:24;1.02;;;0.40;;
70635;SDS011;58206;47.310;19.502;2023-09-08T04:58:09;3.50;;;1.25;;
70635;SDS011;58206;47.310;19.502;2023-09-08T05:00:53;0.52;;;0.20;;
70635;SDS011;58206;47.310;19.502;2023-09-08T05:03:37;0.65;;;0.22;;
70635;SDS011;58206;47.310;19.502;2023-09-08T05:06:23;0.77;;;0.20;;
70635;SDS011;58206;47.310;19.502;2023-09-08T05:09:08;0.65;;;0.20;;
70635;SDS011;58206;47.310;19.502;2023-09-08T05:11:53;0.20;;;0.03;;
70635;SDS011;58206;47.310;19.502;2023-09-08T05:14:37;1.38;;;0.55;;
70635;SDS011;58206;47.310;19.502;2023-09-08T05:17:25;1.35;;;0.65;;
70635;SDS011;58206;47.310;19.502;2023-09-08T05:20:10;1.00;;;0.60;;
70635;SDS011;58206;47.310;19.502;2023-09-08T05:22:54;1.52;;;0.52;;
70635;SDS011;58206;47.310;19.502;2023-09-08T05:25:41;1.25;;;0.40;;
70635;SDS011;58206;47.310;19.502;2023-09-08T05:28:30;0.73;;;0.25;;
70635;SDS011;58206;47.310;19.502;2023-09-08T05:31:18;1.38;;;0.47;;
70635;SDS011;58206;47.310;19.502;2023-09-08T05:34:03;1.47;;;0.57;;
70635;SDS011;58206;47.310;19.502;2023-09-08T05:36:48;1.17;;;0.38;;
70635;SDS011;58206;47.310;19.502;2023-09-08T05:39:32;1.60;;;0.75;;
70635;SDS011;58206;47.310;19.502;2023-09-08T05:42:17;1.23;;;0.55;;
70635;SDS011;58206;47.310;19.502;2023-09-08T05:45:02;1.25;;;0.57;;
70635;SDS011;58206;47.310;19.502;2023-09-08T05:47:47;1.23;;;0.53;;
70635;SDS011;58206;47.310;19.502;2023-09-08T05:50:32;1.75;;;0.70;;
70635;SDS011;58206;47.310;19.502;2023-09-08T05:53:17;0.90;;;0.40;;
70635;SDS011;58206;47.310;19.502;2023-09-08T05:56:02;1.50;;;0.70;;
70635;SDS011;58206;47.310;19.502;2023-09-08T05:58:47;1.27;;;0.63;;
70635;SDS011;58206;47.310;19.502;2023-09-08T06:01:31;1.70;;;0.93;;
70635;SDS011;58206;47.310;19.502;2023-09-08T06:04:18;1.88;;;1.05;;
70635;SDS011;58206;47.310;19.502;2023-09-08T06:07:03;1.45;;;0.82;;
70635;SDS011;58206;47.310;19.502;2023-09-08T06:09:49;2.10;;;1.27;;
70635;SDS011;58206;47.310;19.502;2023-09-08T06:12:34;1.90;;;0.93;;
70635;SDS011;58206;47.310;19.502;2023-09-08T06:15:19;2.53;;;1.10;;
70635;SDS011;58206;47.310;19.502;2023-09-08T06:18:03;2.25;;;1.00;;
70635;SDS011;58206;47.310;19.502;2023-09-08T06:20:48;1.92;;;0.75;;
70635;SDS011;58206;47.310;19.502;2023-09-08T06:23:33;3.05;;;1.58;;
70635;SDS011;58206;47.310;19.502;2023-09-08T06:26:18;2.55;;;1.05;;
70635;SDS011;58206;47.310;19.502;2023-09-08T06:29:02;2.20;;;1.10;;
70635;SDS011;58206;47.310;19.502;2023-09-08T06:31:47;2.70;;;1.15;;
70635;SDS011;58206;47.310;19.502;2023-09-08T06:34:32;5.80;;;1.55;;
70635;SDS011;58206;47.310;19.502;2023-09-08T06:37:20;2.88;;;1.30;;
70635;SDS011;58206;47.310;19.502;2023-09-08T06:40:05;3.60;;;2.03;;
70635;SDS011;58206;47.310;19.502;2023-09-08T06:42:51;3.10;;;1.50;;
70635;SDS011;58206;47.310;19.502;2023-09-08T06:45:49;3.20;;;1.38;;
70635;SDS011;58206;47.310;19.502;2023-09-08T06:48:34;3.08;;;1.42;;
70635;SDS011;58206;47.310;19.502;2023-09-08T06:51:18;2.53;;;1.60;;
70635;SDS011;58206;47.310;19.502;2023-09-08T06:54:03;3.45;;;1.67;;
70635;SDS011;58206;47.310;19.502;2023-09-08T06:56:54;3.40;;;1.80;;
70635;SDS011;58206;47.310;19.502;2023-09-08T06:59:38;3.45;;;1.80;;
70635;SDS011;58206;47.310;19.502;2023-09-08T07:02:29;2.85;;;1.42;;
70635;SDS011;58206;47.310;19.502;2023-09-08T07:05:14;3.92;;;1.60;;
70635;SDS011;58206;47.310;19.502;2023-09-08T07:08:27;2.67;;;1.35;;
70635;SDS011;58206;47.310;19.502;2023-09-08T07:11:12;4.40;;;1.80;;
70635;SDS011;58206;47.310;19.502;2023-09-08T07:13:56;3.13;;;1.92;;
70635;SDS011;58206;47.310;19.502;2023-09-08T07:16:41;3.72;;;2.30;;
70635;SDS011;58206;47.310;19.502;2023-09-08T07:19:26;2.60;;;1.30;;
70635;SDS011;58206;47.310;19.502;2023-09-08T07:22:12;3.25;;;1.80;;
70635;SDS011;58206;47.310;19.502;2023-09-08T07:24:56;4.63;;;1.90;;
70635;SDS011;58206;47.310;19.502;2023-09-08T07:27:41;2.83;;;1.63;;
70635;SDS011;58206;47.310;19.502;2023-09-08T07:30:25;3.45;;;1.67;;
70635;SDS011;58206;47.310;19.502;2023-09-08T07:33:10;4.78;;;2.03;;
70635;SDS011;58206;47.310;19.502;2023-09-08T07:35:55;3.95;;;1.98;;
70635;SDS011;58206;47.310;19.502;2023-09-08T07:38:40;3.80;;;1.87;;
70635;SDS011;58206;47.310;19.502;2023-09-08T07:41:25;4.93;;;2.50;;
70635;SDS011;58206;47.310;19.502;2023-09-08T07:44:12;3.22;;;1.98;;
70635;SDS011;58206;47.310;19.502;2023-09-08T07:46:56;3.58;;;2.00;;
70635;SDS011;58206;47.310;19.502;2023-09-08T07:54:17;3.17;;;1.80;;
70635;SDS011;58206;47.310;19.502;2023-09-08T07:57:05;3.53;;;2.10;;
70635;SDS011;58206;47.310;19.502;2023-09-08T07:59:49;4.35;;;2.20;;
70635;SDS011;58206;47.310;19.502;2023-09-08T08:02:34;4.63;;;2.10;;
70635;SDS011;58206;47.310;19.502;2023-09-08T08:05:18;4.47;;;2.22;;
70635;SDS011;58206;47.310;19.502;2023-09-08T08:08:02;3.83;;;2.37;;
70635;SDS011;58206;47.310;19.502;2023-09-08T08:10:47;2.90;;;1.70;;
70635;SDS011;58206;47.310;19.502;2023-09-08T08:13:31;4.18;;;2.15;;
70635;SDS011;58206;47.310;19.502;2023-09-08T08:16:15;3.58;;;2.20;;
70635;SDS011;58206;47.310;19.502;2023-09-08T08:18:59;4.78;;;1.98;;
70635;SDS011;58206;47.310;19.502;2023-09-08T08:21:44;4.67;;;2.43;;
70635;SDS011;58206;47.310;19.502;2023-09-08T08:24:28;4.65;;;2.70;;
70635;SDS011;58206;47.310;19.502;2023-09-08T08:27:12;3.58;;;1.73;;
70635;SDS011;58206;47.310;19.502;2023-09-08T08:29:57;4.18;;;2.30;;
70635;SDS011;58206;47.310;19.502;2023-09-08T08:32:44;4.03;;;1.90;;
70635;SDS011;58206;47.310;19.502;2023-09-08T08:35:30;3.83;;;2.00;;
70635;SDS011;58206;47.310;19.502;2023-09-08T08:38:14;4.63;;;2.85;;
70635;SDS011;58206;47.310;19.502;2023-09-08T08:41:02;4.18;;;2.20;;
70635;SDS011;58206;47.310;19.502;2023-09-08T08:43:47;4.40;;;2.67;;
70635;SDS011;58206;47.310;19.502;2023-09-08T08:46:32;4.10;;;2.35;;
70635;SDS011;58206;47.310;19.502;2023-09-08T08:49:17;4.53;;;2.33;;
70635;SDS011;58206;47.310;19.502;2023-09-08T08:52:02;5.20;;;2.45;;
70635;SDS011;58206;47.310;19.502;2023-09-08T08:54:51;3.63;;;2.20;;
70635;SDS011;58206;47.310;19.502;2023-09-08T08:57:39;4.38;;;2.30;;
70635;SDS011;58206;47.310;19.502;2023-09-08T09:00:23;3.90;;;2.55;;
70635;SDS011;58206;47.310;19.502;2023-09-08T09:03:07;4.30;;;2.40;;
70635;SDS011;58206;47.310;19.502;2023-09-08T09:05:53;4.90;;;2.20;;
70635;SDS011;58206;47.310;19.502;2023-09-08T09:08:37;5.43;;;2.50;;
70635;SDS011;58206;47.310;19.502;2023-09-08T09:11:23;3.83;;;1.85;;
70635;SDS011;58206;47.310;19.502;2023-09-08T09:14:08;7.18;;;2.20;;
70635;SDS011;58206;47.310;19.502;2023-09-08T09:16:52;4.33;;;2.10;;
70635;SDS011;58206;47.310;19.502;2023-09-08T09:19:40;3.28;;;1.90;;
70635;SDS011;58206;47.310;19.502;2023-09-08T09:22:25;4.15;;;2.40;;
70635;SDS011;58206;47.310;19.502;2023-09-08T09:25:38;5.20;;;2.15;;
70635;SDS011;58206;47.310;19.502;2023-09-08T09:28:22;4.55;;;2.67;;
70635;SDS011;58206;47.310;19.502;2023-09-08T09:31:07;4.77;;;2.77;;
70635;SDS011;58206;47.310;19.502;2023-09-08T09:34:01;4.10;;;1.90;;
70635;SDS011;58206;47.310;19.502;2023-09-08T09:36:48;4.47;;;1.92;;
70635;SDS011;58206;47.310;19.502;2023-09-08T09:39:34;4.32;;;1.92;;
70635;SDS011;58206;47.310;19.502;2023-09-08T09:42:19;3.45;;;1.67;;
70635;SDS011;58206;47.310;19.502;2023-09-08T09:45:04;4.77;;;2.20;;
70635;SDS011;58206;47.310;19.502;2023-09-08T09:47:49;5.10;;;2.28;;
70635;SDS011;58206;47.310;19.502;2023-09-08T09:50:38;3.42;;;1.50;;
70635;SDS011;58206;47.310;19.502;2023-09-08T09:53:24;4.07;;;1.75;;
70635;SDS011;58206;47.310;19.502;2023-09-08T09:56:08;3.53;;;1.27;;
70635;SDS011;58206;47.310;19.502;2023-09-08T09:58:53;3.63;;;1.40;;
70635;SDS011;58206;47.310;19.502;2023-09-08T10:01:38;2.53;;;0.88;;
70635;SDS011;58206;47.310;19.502;2023-09-08T10:04:22;5.57;;;1.60;;
70635;SDS011;58206;47.310;19.502;2023-09-08T10:07:07;3.25;;;1.52;;
70635;SDS011;58206;47.310;19.502;2023-09-08T10:09:52;3.13;;;1.23;;
70635;SDS011;58206;47.310;19.502;2023-09-08T10:12:36;3.27;;;1.37;;
70635;SDS011;58206;47.310;19.502;2023-09-08T10:15:22;3.33;;;1.70;;
70635;SDS011;58206;47.310;19.502;2023-09-08T10:18:07;2.95;;;1.42;;
70635;SDS011;58206;47.310;19.502;2023-09-08T10:20:53;3.88;;;1.35;;
70635;SDS011;58206;47.310;19.502;2023-09-08T10:23:41;4.15;;;1.23;;
70635;SDS011;58206;47.310;19.502;2023-09-08T10:26:27;3.53;;;1.50;;
70635;SDS011;58206;47.310;19.502;2023-09-08T10:29:12;2.40;;;1.08;;
70635;SDS011;58206;47.310;19.502;2023-09-08T10:31:57;2.53;;;1.10;;
70635;SDS011;58206;47.310;19.502;2023-09-08T10:34:42;2.20;;;0.93;;
70635;SDS011;58206;47.310;19.502;2023-09-08T10:37:28;2.75;;;1.40;;
70635;SDS011;58206;47.310;19.502;2023-09-08T10:40:23;3.33;;;1.50;;
70635;SDS011;58206;47.310;19.502;2023-09-08T10:43:08;3.35;;;1.30;;
70635;SDS011;58206;47.310;19.502;2023-09-08T10:45:53;3.00;;;1.08;;
70635;SDS011;58206;47.310;19.502;2023-09-08T10:48:44;3.80;;;1.88;;
70635;SDS011;58206;47.310;19.502;2023-09-08T10:51:48;5.03;;;1.55;;
70635;SDS011;58206;47.310;19.502;2023-09-08T10:54:45;2.67;;;1.40;;
70635;SDS011;58206;47.310;19.502;2023-09-08T10:57:31;3.88;;;1.42;;
70635;SDS011;58206;47.310;19.502;2023-09-08T11:04:39;2.88;;;1.15;;
70635;SDS011;58206;47.310;19.502;2023-09-08T11:07:25;3.65;;;1.50;;
70635;SDS011;58206;47.310;19.502;2023-09-08T11:10:10;2.27;;;0.70;;
70635;SDS011;58206;47.310;19.502;2023-09-08T11:12:55;2.85;;;1.10;;
70635;SDS011;58206;47.310;19.502;2023-09-08T11:15:39;2.58;;;1.02;;
70635;SDS011;58206;47.310;19.502;2023-09-08T11:18:27;2.42;;;0.88;;
70635;SDS011;58206;47.310;19.502;2023-09-08T11:21:12;3.22;;;1.27;;
70635;SDS011;58206;47.310;19.502;2023-09-08T11:23:57;3.90;;;1.30;;
70635;SDS011;58206;47.310;19.502;2023-09-08T11:26:41;3.22;;;1.25;;
70635;SDS011;58206;47.310;19.502;2023-09-08T11:29:29;2.60;;;1.17;;
70635;SDS011;58206;47.310;19.502;2023-09-08T11:32:14;2.55;;;1.20;;
70635;SDS011;58206;47.310;19.502;2023-09-08T11:35:05;4.47;;;1.13;;
70635;SDS011;58206;47.310;19.502;2023-09-08T11:37:51;2.87;;;1.10;;
70635;SDS011;58206;47.310;19.502;2023-09-08T11:40:46;4.63;;;1.83;;
70635;SDS011;58206;47.310;19.502;2023-09-08T11:43:30;2.90;;;1.35;;
70635;SDS011;58206;47.310;19.502;2023-09-08T11:46:22;4.07;;;1.90;;
70635;SDS011;58206;47.310;19.502;2023-09-08T11:49:06;4.95;;;1.80;;
70635;SDS011;58206;47.310;19.502;2023-09-08T11:51:54;5.37;;;1.83;;
70635;SDS011;58206;47.310;19.502;2023-09-08T11:54:42;2.90;;;1.10;;
70635;SDS011;58206;47.310;19.502;2023-09-08T11:57:27;3.47;;;1.20;;
70635;SDS011;58206;47.310;19.502;2023-09-08T12:00:12;4.25;;;1.42;;
70635;SDS011;58206;47.310;19.502;2023-09-08T12:03:11;3.35;;;1.70;;
70635;SDS011;58206;47.310;19.502;2023-09-08T12:05:56;4.57;;;1.60;;
70635;SDS011;58206;47.310;19.502;2023-09-08T12:08:41;3.58;;;1.42;;
70635;SDS011;58206;47.310;19.502;2023-09-08T12:11:31;4.38;;;1.23;;
70635;SDS011;58206;47.310;19.502;2023-09-08T12:14:15;3.30;;;1.00;;
70635;SDS011;58206;47.310;19.502;2023-09-08T12:17:06;2.85;;;1.33;;
70635;SDS011;58206;47.310;19.502;2023-09-08T12:19:53;3.67;;;1.07;;
70635;SDS011;58206;47.310;19.502;2023-09-08T12:22:39;3.00;;;1.30;;
70635;SDS011;58206;47.310;19.502;2023-09-08T12:25:30;2.88;;;1.08;;
70635;SDS011;58206;47.310;19.502;2023-09-08T12:28:20;7.68;;;1.63;;
70635;SDS011;58206;47.310;19.502;2023-09-08T12:31:04;7.00;;;1.95;;
70635;SDS011;58206;47.310;19.502;2023-09-08T12:33:49;3.40;;;1.13;;
70635;SDS011;58206;47.310;19.502;2023-09-08T12:36:34;2.88;;;1.10;;
70635;SDS011;58206;47.310;19.502;2023-09-08T12:39:19;2.72;;;1.20;;
70635;SDS011;58206;47.310;19.502;2023-09-08T12:42:04;2.83;;;0.95;;
70635;SDS011;58206;47.310;19.502;2023-09-08T12:44:48;2.13;;;0.93;;
70635;SDS011;58206;47.310;19.502;2023-09-08T12:47:34;2.20;;;0.60;;
70635;SDS011;58206;47.310;19.502;2023-09-08T12:50:19;3.05;;;1.25;;
70635;SDS011;58206;47.310;19.502;2023-09-08T12:53:05;2.95;;;0.98;;
70635;SDS011;58206;47.310;19.502;2023-09-08T12:55:49;4.18;;;1.80;;
70635;SDS011;58206;47.310;19.502;2023-09-08T12:58:33;3.83;;;1.42;;
70635;SDS011;58206;47.310;19.502;2023-09-08T13:01:18;2.40;;;1.10;;
70635;SDS011;58206;47.310;19.502;2023-09-08T13:04:02;2.72;;;0.80;;
70635;SDS011;58206;47.310;19.502;2023-09-08T13:06:46;3.15;;;1.15;;
70635;SDS011;58206;47.310;19.502;2023-09-08T13:09:31;2.53;;;0.95;;
70635;SDS011;58206;47.310;19.502;2023-09-08T13:12:15;2.78;;;1.08;;
70635;SDS011;58206;47.310;19.502;2023-09-08T13:14:59;3.33;;;1.03;;
70635;SDS011;58206;47.310;19.502;2023-09-08T13:17:44;3.15;;;1.15;;
70635;SDS011;58206;47.310;19.502;2023-09-08T13:20:28;3.28;;;1.33;;
70635;SDS011;58206;47.310;19.502;2023-09-08T13:23:13;3.58;;;1.60;;
70635;SDS011;58206;47.310;19.502;2023-09-08T13:25:57;4.75;;;1.17;;
70635;SDS011;58206;47.310;19.502;2023-09-08T13:28:42;4.83;;;1.70;;
70635;SDS011;58206;47.310;19.502;2023-09-08T13:31:27;3.80;;;1.35;;
70635;SDS011;58206;47.310;19.502;2023-09-08T13:34:11;4.63;;;1.55;;
70635;SDS011;58206;47.310;19.502;2023-09-08T13:36:56;2.60;;;1.10;;
70635;SDS011;58206;47.310;19.502;2023-09-08T13:39:40;2.90;;;1.25;;
70635;SDS011;58206;47.310;19.502;2023-09-08T13:42:24;2.53;;;1.00;;
70635;SDS011;58206;47.310;19.502;2023-09-08T13:45:13;3.95;;;1.23;;
70635;SDS011;58206;47.310;19.502;2023-09-08T13:47:58;3.15;;;0.88;;
70635;SDS011;58206;47.310;19.502;2023-09-08T13:50:43;2.67;;;0.90;;
70635;SDS011;58206;47.310;19.502;2023-09-08T13:53:27;2.78;;;1.27;;
70635;SDS011;58206;47.310;19.502;2023-09-08T13:56:11;3.53;;;1.23;;
70635;SDS011;58206;47.310;19.502;2023-09-08T13:58:56;3.30;;;1.40;;
70635;SDS011;58206;47.310;19.502;2023-09-08T14:01:40;7.22;;;1.55;;
70635;SDS011;58206;47.310;19.502;2023-09-08T14:04:25;3.25;;;1.42;;
70635;SDS011;58206;47.310;19.502;2023-09-08T14:07:09;2.95;;;1.15;;
70635;SDS011;58206;47.310;19.502;2023-09-08T14:09:54;2.57;;;1.10;;
70635;SDS011;58206;47.310;19.502;2023-09-08T14:12:38;2.88;;;1.15;;
70635;SDS011;58206;47.310;19.502;2023-09-08T14:15:22;2.75;;;1.23;;
70635;SDS011;58206;47.310;19.502;2023-09-08T14:18:07;2.75;;;1.35;;
70635;SDS011;58206;47.310;19.502;2023-09-08T14:20:51;3.20;;;0.88;;
70635;SDS011;58206;47.310;19.502;2023-09-08T14:23:35;3.47;;;1.53;;
70635;SDS011;58206;47.310;19.502;2023-09-08T14:26:24;2.53;;;1.00;;
70635;SDS011;58206;47.310;19.502;2023-09-08T14:29:27;2.05;;;0.90;;
70635;SDS011;58206;47.310;19.502;2023-09-08T14:32:19;2.60;;;0.95;;
70635;SDS011;58206;47.310;19.502;2023-09-08T14:35:04;3.63;;;1.45;;
70635;SDS011;58206;47.310;19.502;2023-09-08T14:37:49;2.80;;;1.03;;
70635;SDS011;58206;47.310;19.502;2023-09-08T14:40:33;2.50;;;0.95;;
70635;SDS011;58206;47.310;19.502;2023-09-08T14:43:17;2.67;;;1.15;;
70635;SDS011;58206;47.310;19.502;2023-09-08T14:46:02;3.25;;;1.17;;
70635;SDS011;58206;47.310;19.502;2023-09-08T14:48:49;2.50;;;0.95;;
70635;SDS011;58206;47.310;19.502;2023-09-08T14:51:33;2.90;;;1.07;;
70635;SDS011;58206;47.310;19.502;2023-09-08T14:54:18;3.15;;;1.27;;
70635;SDS011;58206;47.310;19.502;2023-09-08T14:57:02;2.35;;;0.85;;
70635;SDS011;58206;47.310;19.502;2023-09-08T14:59:47;2.47;;;0.93;;
70635;SDS011;58206;47.310;19.502;2023-09-08T15:02:31;2.35;;;0.88;;
70635;SDS011;58206;47.310;19.502;2023-09-08T15:05:16;2.53;;;0.93;;
70635;SDS011;58206;47.310;19.502;2023-09-08T15:08:00;2.97;;;1.52;;
70635;SDS011;58206;47.310;19.502;2023-09-08T15:10:45;3.17;;;1.20;;
70635;SDS011;58206;47.310;19.502;2023-09-08T15:13:29;3.40;;;0.95;;
70635;SDS011;58206;47.310;19.502;2023-09-08T15:16:14;4.20;;;1.00;;
70635;SDS011;58206;47.310;19.502;2023-09-08T15:18:58;1.53;;;0.60;;
70635;SDS011;58206;47.310;19.502;2023-09-08T15:21:43;2.45;;;1.05;;
70635;SDS011;58206;47.310;19.502;2023-09-08T15:24:27;2.58;;;0.93;;
70635;SDS011;58206;47.310;19.502;2023-09-08T15:27:12;2.13;;;0.80;;
70635;SDS011;58206;47.310;19.502;2023-09-08T15:29:56;3.47;;;1.13;;
70635;SDS011;58206;47.310;19.502;2023-09-08T15:32:40;2.33;;;0.97;;
70635;SDS011;58206;47.310;19.502;2023-09-08T15:35:24;3.17;;;1.45;;
70635;SDS011;58206;47.310;19.502;2023-09-08T15:38:09;2.88;;;1.00;;
70635;SDS011;58206;47.310;19.502;2023-09-08T15:43:48;2.67;;;0.93;;
70635;SDS011;58206;47.310;19.502;2023-09-08T15:46:32;2.33;;;0.90;;
70635;SDS011;58206;47.310;19.502;2023-09-08T15:49:17;3.10;;;1.00;;
70635;SDS011;58206;47.310;19.502;2023-09-08T15:52:01;3.63;;;1.02;;
70635;SDS011;58206;47.310;19.502;2023-09-08T15:54:46;3.38;;;1.23;;
70635;SDS011;58206;47.310;19.502;2023-09-08T15:57:30;3.28;;;1.10;;
70635;SDS011;58206;47.310;19.502;2023-09-08T16:00:14;5.07;;;1.77;;
70635;SDS011;58206;47.310;19.502;2023-09-08T16:02:59;8.48;;;1.20;;
70635;SDS011;58206;47.310;19.502;2023-09-08T16:05:43;2.63;;;1.20;;
70635;SDS011;58206;47.310;19.502;2023-09-08T16:08:28;2.35;;;0.82;;
70635;SDS011;58206;47.310;19.502;2023-09-08T16:11:12;3.05;;;1.08;;
70635;SDS011;58206;47.310;19.502;2023-09-08T16:13:57;4.97;;;0.83;;
70635;SDS011;58206;47.310;19.502;2023-09-08T16:16:41;5.95;;;1.40;;
70635;SDS011;58206;47.310;19.502;2023-09-08T16:19:25;2.58;;;0.98;;
70635;SDS011;58206;47.310;19.502;2023-09-08T16:22:10;2.05;;;0.85;;
70635;SDS011;58206;47.310;19.502;2023-09-08T16:24:54;3.63;;;1.33;;
70635;SDS011;58206;47.310;19.502;2023-09-08T16:27:38;2.70;;;0.80;;
70635;SDS011;58206;47.310;19.502;2023-09-08T16:30:23;2.58;;;1.20;;
70635;SDS011;58206;47.310;19.502;2023-09-08T16:33:07;2.33;;;1.00;;
70635;SDS011;58206;47.310;19.502;2023-09-08T16:35:53;2.40;;;0.88;;
70635;SDS011;58206;47.310;19.502;2023-09-08T16:38:38;2.92;;;1.00;;